createdAt,value
2023-02-17T00:00:13.279Z,29.83
2023-02-17T00:02:40.106Z,29.86
2023-02-17T00:05:07.150Z,29.90
2023-02-17T00:07:34.391Z,29.52
2023-02-17T00:10:00.943Z,29.89
2023-02-17T00:12:28.002Z,29.79
2023-02-17T00:14:54.570Z,29.90
2023-02-17T00:17:21.181Z,29.81
2023-02-17T00:19:47.727Z,30.12
2023-02-17T00:22:14.291Z,30.14
2023-02-17T00:24:41.062Z,29.96
2023-02-17T00:27:07.707Z,30.15
2023-02-17T00:29:34.346Z,30.35
2023-02-17T00:32:01.001Z,30.33
2023-02-17T00:34:28.208Z,30.21
2023-02-17T00:36:54.847Z,30.20
2023-02-17T00:39:21.494Z,30.26
2023-02-17T00:41:49.107Z,30.25
2023-02-17T00:44:18.805Z,30.28
2023-02-17T00:46:46.551Z,30.28
2023-02-17T00:49:19.793Z,30.30
2023-02-17T00:51:47.248Z,30.09
2023-02-17T00:54:14.876Z,29.98
2023-02-17T00:56:42.423Z,30.35
2023-02-17T00:59:09.157Z,30.20
2023-02-17T01:01:36.296Z,30.39
2023-02-17T01:04:03.038Z,30.32
2023-02-17T01:06:33.150Z,30.62
2023-02-17T01:09:00.792Z,30.57
2023-02-17T01:11:29.915Z,30.67
2023-02-17T01:13:58.889Z,30.54
2023-02-17T01:16:29.836Z,30.66
2023-02-17T01:18:59.107Z,30.70
2023-02-17T01:21:27.836Z,30.75
2023-02-17T01:23:57.152Z,30.80
2023-02-17T01:26:26.365Z,30.78
2023-02-17T01:28:54.252Z,30.86
2023-02-17T01:31:22.106Z,30.92
2023-02-17T01:33:49.076Z,31.23
2023-02-17T01:36:17.972Z,31.17
2023-02-17T01:38:46.364Z,30.70
2023-02-17T01:41:15.943Z,30.74
2023-02-17T01:43:42.792Z,30.61
2023-02-17T01:46:09.707Z,30.72
2023-02-17T01:48:37.892Z,30.93
2023-02-17T01:51:09.456Z,30.40
2023-02-17T01:53:56.646Z,30.57
2023-02-17T01:56:24.327Z,30.50
2023-02-17T01:59:00.552Z,30.32
2023-02-17T02:01:27.724Z,30.00
2023-02-17T02:03:56.227Z,30.02
2023-02-17T02:06:26.174Z,29.61
2023-02-17T02:09:09.511Z,29.64
2023-02-17T02:11:37.137Z,29.49
2023-02-17T02:14:06.832Z,29.47
2023-02-17T02:16:47.301Z,29.69
2023-02-17T02:19:41.288Z,29.47
2023-02-17T02:22:15.598Z,29.40
2023-02-17T02:24:45.142Z,29.79
2023-02-17T02:27:38.696Z,29.19
2023-02-17T02:30:42.422Z,29.24
2023-02-17T02:33:12.089Z,29.60
2023-02-17T02:35:56.408Z,29.30
2023-02-17T02:38:41.851Z,30.14
2023-02-17T02:41:19.117Z,29.47
2023-02-17T02:43:45.634Z,29.71
2023-02-17T02:46:12.243Z,29.52
2023-02-17T02:48:40.060Z,29.42
2023-02-17T02:51:24.355Z,29.36
2023-02-17T02:53:58.868Z,29.23
2023-02-17T02:57:01.060Z,29.11
2023-02-17T02:59:58.048Z,29.43
2023-02-17T03:02:59.511Z,29.94
2023-02-17T03:05:55.742Z,29.57
2023-02-17T03:08:42.753Z,29.99
2023-02-17T03:11:09.622Z,29.76
2023-02-17T03:13:39.456Z,29.83
2023-02-17T03:16:08.775Z,30.13
2023-02-17T03:18:36.223Z,29.99
2023-02-17T03:21:11.176Z,30.31
2023-02-17T03:23:37.744Z,29.35
2023-02-17T03:26:04.905Z,29.54
2023-02-17T03:28:32.559Z,30.20
2023-02-17T03:30:59.362Z,30.52
2023-02-17T03:33:25.985Z,29.70
2023-02-17T03:35:52.596Z,29.98
2023-02-17T03:38:19.208Z,29.52
2023-02-17T03:40:45.756Z,29.77
2023-02-17T03:43:12.321Z,29.87
2023-02-17T03:45:40.338Z,29.97
2023-02-17T03:48:06.912Z,29.63
2023-02-17T03:50:33.479Z,29.89
2023-02-17T03:53:00.094Z,29.55
2023-02-17T03:55:26.656Z,29.46
2023-02-17T03:57:53.229Z,29.50
2023-02-17T04:00:20.162Z,29.31
2023-02-17T04:02:46.828Z,29.40
2023-02-17T04:05:13.447Z,29.64
2023-02-17T04:07:40.188Z,29.82
2023-02-17T04:10:09.410Z,29.61
2023-02-17T04:12:36.334Z,29.43
2023-02-17T04:15:02.961Z,29.79
2023-02-17T04:17:29.556Z,29.50
2023-02-17T04:19:56.360Z,29.13
2023-02-17T04:22:23.029Z,29.56
2023-02-17T04:24:49.685Z,29.29
2023-02-17T04:27:16.296Z,29.48
2023-02-17T04:29:42.924Z,29.37
2023-02-17T04:32:09.550Z,29.57
2023-02-17T04:34:36.176Z,29.18
2023-02-17T04:37:02.730Z,29.63
2023-02-17T04:39:29.570Z,29.54
2023-02-17T04:41:56.248Z,29.36
2023-02-17T04:44:22.963Z,29.60
2023-02-17T04:46:49.523Z,29.26
2023-02-17T04:49:16.176Z,29.47
2023-02-17T04:51:42.807Z,29.30
2023-02-17T04:54:09.540Z,28.74
2023-02-17T04:56:36.130Z,29.86
2023-02-17T04:59:02.762Z,29.99
2023-02-17T05:01:29.410Z,29.49
2023-02-17T05:03:56.176Z,30.47
2023-02-17T05:06:22.757Z,30.39
2023-02-17T05:08:50.619Z,29.86
2023-02-17T05:11:17.151Z,29.38
2023-02-17T05:13:43.845Z,29.65
2023-02-17T05:16:10.498Z,29.84
2023-02-17T05:18:37.196Z,29.28
2023-02-17T05:21:03.937Z,29.46
2023-02-17T05:23:30.609Z,29.25
2023-02-17T05:25:57.180Z,29.59
2023-02-17T05:28:23.870Z,29.26
2023-02-17T05:30:50.863Z,30.33
2023-02-17T05:33:17.510Z,29.69
2023-02-17T05:35:44.060Z,29.80
2023-02-17T05:38:10.618Z,29.18
2023-02-17T05:40:37.321Z,30.03
2023-02-17T05:43:03.948Z,29.49
2023-02-17T05:45:30.596Z,30.07
2023-02-17T05:47:57.682Z,29.70
2023-02-17T05:50:24.587Z,29.71
2023-02-17T05:52:51.204Z,29.22
2023-02-17T05:55:18.173Z,29.56
2023-02-17T05:57:44.765Z,29.79
2023-02-17T06:00:12.282Z,29.27
2023-02-17T06:02:38.904Z,29.71
2023-02-17T06:05:05.813Z,29.19
2023-02-17T06:07:32.520Z,29.68
2023-02-17T06:09:59.091Z,30.50
2023-02-17T06:12:25.768Z,30.23
2023-02-17T06:14:52.619Z,29.38
2023-02-17T06:17:19.167Z,29.78
2023-02-17T06:19:45.842Z,29.94
2023-02-17T06:22:12.505Z,29.64
2023-02-17T06:24:39.126Z,30.50
2023-02-17T06:27:05.692Z,30.04
2023-02-17T06:29:32.360Z,30.95
2023-02-17T06:31:59.055Z,30.75
2023-02-17T06:34:25.725Z,32.15
2023-02-17T06:36:52.271Z,32.99
2023-02-17T06:39:19.106Z,33.44
2023-02-17T06:41:45.806Z,33.86
2023-02-17T06:44:12.499Z,33.11
2023-02-17T06:46:39.144Z,33.27
2023-02-17T06:49:06.173Z,32.92
2023-02-17T06:51:34.968Z,33.16
2023-02-17T06:54:01.622Z,33.09
2023-02-17T06:56:28.260Z,32.47
2023-02-17T06:58:54.909Z,32.72
2023-02-17T07:01:26.472Z,33.74
2023-02-17T07:03:53.705Z,32.46
2023-02-17T07:06:20.778Z,33.47
2023-02-17T07:08:47.408Z,34.14
2023-02-17T07:11:14.704Z,34.30
2023-02-17T07:13:44.501Z,34.58
2023-02-17T07:16:13.093Z,35.41
2023-02-17T07:18:40.665Z,34.94
2023-02-17T07:21:09.543Z,34.01
2023-02-17T07:23:36.795Z,34.92
2023-02-17T07:26:09.156Z,34.16
2023-02-17T07:28:36.538Z,33.35
2023-02-17T07:31:07.904Z,35.01
2023-02-17T07:33:35.824Z,35.02
2023-02-17T07:36:13.935Z,34.00
2023-02-17T07:38:41.288Z,34.11
2023-02-17T07:41:19.915Z,34.17
2023-02-17T07:43:47.768Z,33.47
2023-02-17T07:46:16.987Z,32.81
2023-02-17T07:48:43.701Z,33.38
2023-02-17T07:51:13.070Z,32.69
2023-02-17T07:53:39.815Z,33.59
2023-02-17T07:56:10.116Z,34.85
2023-02-17T07:58:39.825Z,34.27
2023-02-17T08:01:18.892Z,34.17
2023-02-17T08:03:45.936Z,34.22
2023-02-17T08:06:14.857Z,35.61
2023-02-17T08:09:00.756Z,35.72
2023-02-17T08:11:48.222Z,35.79
2023-02-17T08:14:16.064Z,37.55
2023-02-17T08:16:42.619Z,37.30
2023-02-17T08:19:09.273Z,38.01
2023-02-17T08:21:35.941Z,38.06
2023-02-17T08:24:02.495Z,37.33
2023-02-17T08:26:29.121Z,35.92
2023-02-17T08:28:56.171Z,35.98
2023-02-17T08:31:28.713Z,35.17
2023-02-17T08:33:55.923Z,35.32
2023-02-17T08:36:24.671Z,37.15
2023-02-17T08:38:54.696Z,38.68
2023-02-17T08:41:30.417Z,39.32
2023-02-17T08:43:59.080Z,39.49
2023-02-17T08:46:26.869Z,38.65
2023-02-17T08:48:53.883Z,38.43
2023-02-17T08:51:23.765Z,36.31
2023-02-17T08:53:51.441Z,37.07
2023-02-17T08:56:18.136Z,37.00
2023-02-17T08:58:44.670Z,37.40
2023-02-17T09:01:11.363Z,35.77
2023-02-17T09:03:39.251Z,36.86
2023-02-17T09:06:07.287Z,37.60
2023-02-17T09:08:34.349Z,38.08
2023-02-17T09:11:01.392Z,39.76
2023-02-17T09:13:28.227Z,39.62
2023-02-17T09:15:54.982Z,41.32
2023-02-17T09:18:23.306Z,42.01
2023-02-17T09:20:50.258Z,43.24
2023-02-17T09:23:17.497Z,42.51
2023-02-17T09:25:44.606Z,42.63
2023-02-17T09:28:11.899Z,42.18
2023-02-17T09:30:38.588Z,42.58
2023-02-17T09:33:05.403Z,41.68
2023-02-17T09:35:33.058Z,41.64
2023-02-17T09:38:00.188Z,41.49
2023-02-17T09:40:47.340Z,40.16
2023-02-17T09:43:16.892Z,40.83
2023-02-17T09:45:54.600Z,41.24
2023-02-17T09:48:26.703Z,39.68
2023-02-17T09:51:27.711Z,38.97
2023-02-17T09:54:08.234Z,38.62
2023-02-17T09:56:39.755Z,38.99
2023-02-17T09:59:14.181Z,39.27
2023-02-17T10:01:41.866Z,39.55
2023-02-17T10:04:21.030Z,38.76
2023-02-17T10:06:52.617Z,38.74
2023-02-17T10:09:40.919Z,38.13
2023-02-17T10:12:14.668Z,37.41
2023-02-17T10:14:52.120Z,37.60
2023-02-17T10:17:37.759Z,37.91
2023-02-17T10:20:09.130Z,37.49
2023-02-17T10:22:36.236Z,37.58
2023-02-17T10:25:16.867Z,36.56
2023-02-17T10:27:47.363Z,36.38
2023-02-17T10:30:31.464Z,37.28
2023-02-17T10:33:11.862Z,36.87
2023-02-17T10:35:53.321Z,36.77
2023-02-17T10:39:07.107Z,35.56
2023-02-17T10:41:38.507Z,35.39
2023-02-17T10:44:16.584Z,35.12
2023-02-17T10:46:44.266Z,35.95
2023-02-17T10:49:28.013Z,35.17
2023-02-17T10:51:54.640Z,36.30
2023-02-17T10:54:36.426Z,35.12
2023-02-17T10:57:08.056Z,34.80
2023-02-17T10:59:45.810Z,35.40
2023-02-17T11:02:18.417Z,35.18
2023-02-17T11:04:49.016Z,34.71
2023-02-17T11:07:19.496Z,33.22
2023-02-17T11:09:56.180Z,32.72
2023-02-17T11:12:32.521Z,32.52
2023-02-17T11:15:02.911Z,31.67
2023-02-17T11:17:35.898Z,34.01
2023-02-17T11:20:09.277Z,32.24
2023-02-17T11:23:00.573Z,30.80
2023-02-17T11:25:33.560Z,30.43
2023-02-17T11:28:06.798Z,32.37
2023-02-17T11:30:35.276Z,32.63
2023-02-17T11:33:19.998Z,33.23
2023-02-17T11:35:54.152Z,32.97
2023-02-17T11:38:29.351Z,33.48
2023-02-17T11:41:00.445Z,29.97
2023-02-17T11:43:28.652Z,29.29
2023-02-17T11:46:20.506Z,28.58
2023-02-17T11:48:53.136Z,29.88
2023-02-17T11:51:26.985Z,31.20
2023-02-17T11:53:56.393Z,33.60
2023-02-17T11:56:29.465Z,34.64
2023-02-17T11:59:30.086Z,34.78
2023-02-17T12:02:08.946Z,34.34
2023-02-17T12:04:49.025Z,36.29
2023-02-17T12:07:21.675Z,34.55
2023-02-17T12:10:16.352Z,33.92
2023-02-17T12:12:45.948Z,34.72
2023-02-17T12:15:46.624Z,34.81
2023-02-17T12:18:22.213Z,30.97
2023-02-17T12:21:16.079Z,30.42
2023-02-17T12:24:28.550Z,31.94
2023-02-17T12:27:11.146Z,32.34
2023-02-17T12:29:55.991Z,34.04
2023-02-17T12:32:43.536Z,36.51
2023-02-17T12:35:23.627Z,35.99
2023-02-17T12:38:00.837Z,35.68
2023-02-17T12:40:37.670Z,34.45
2023-02-17T12:43:40.472Z,35.31
2023-02-17T12:46:12.140Z,34.46
2023-02-17T12:48:46.782Z,35.02
2023-02-17T12:51:26.322Z,35.70
2023-02-17T12:54:05.242Z,35.07
2023-02-17T12:56:50.983Z,35.58
2023-02-17T12:59:32.928Z,34.03
2023-02-17T13:02:06.395Z,35.41
2023-02-17T13:04:35.308Z,35.76
2023-02-17T13:07:21.278Z,35.54
2023-02-17T13:09:49.446Z,36.39
2023-02-17T13:12:31.734Z,36.91
2023-02-17T13:15:00.886Z,37.63
2023-02-17T13:17:31.946Z,37.85
2023-02-17T13:20:06.366Z,38.22
2023-02-17T13:22:33.344Z,37.87
2023-02-17T13:25:00.763Z,37.00
2023-02-17T13:27:33.613Z,39.22
2023-02-17T13:30:21.515Z,38.98
2023-02-17T13:33:00.411Z,37.47
2023-02-17T13:35:26.918Z,36.10
2023-02-17T13:37:55.028Z,36.48
2023-02-17T13:40:22.656Z,38.54
2023-02-17T13:42:51.572Z,37.15
2023-02-17T13:45:29.306Z,37.57
2023-02-17T13:48:10.733Z,37.03
2023-02-17T13:50:43.360Z,37.53
2023-02-17T13:53:37.983Z,37.25
2023-02-17T13:56:08.866Z,38.66
2023-02-17T13:58:38.356Z,37.97
2023-02-17T14:01:08.038Z,38.01
2023-02-17T14:03:41.540Z,38.44
2023-02-17T14:06:23.344Z,37.56
2023-02-17T14:08:49.979Z,37.42
2023-02-17T14:11:23.042Z,39.19
2023-02-17T14:13:51.699Z,39.56
2023-02-17T14:16:31.949Z,38.41
2023-02-17T14:19:11.047Z,37.99
2023-02-17T14:21:40.733Z,36.74
2023-02-17T14:24:07.424Z,38.29
2023-02-17T14:26:47.343Z,38.67
2023-02-17T14:29:14.990Z,39.01
2023-02-17T14:31:49.144Z,39.39
2023-02-17T14:34:34.076Z,39.78
2023-02-17T14:37:09.362Z,38.95
2023-02-17T14:39:35.952Z,37.42
2023-02-17T14:42:02.604Z,37.57
2023-02-17T14:44:29.278Z,37.67
2023-02-17T14:46:55.811Z,38.52
2023-02-17T14:49:22.645Z,38.70
2023-02-17T14:51:49.278Z,38.61
2023-02-17T14:54:17.317Z,38.81
2023-02-17T14:57:12.740Z,38.84
2023-02-17T14:59:44.407Z,38.59
2023-02-17T15:02:17.063Z,36.70
2023-02-17T15:04:43.671Z,37.25
2023-02-17T15:07:13.636Z,38.18
2023-02-17T15:09:41.706Z,38.25
2023-02-17T15:12:20.850Z,38.23
2023-02-17T15:14:48.496Z,38.37
2023-02-17T15:17:16.158Z,39.52
2023-02-17T15:19:44.802Z,39.04
2023-02-17T15:22:13.530Z,38.71
2023-02-17T15:24:41.042Z,38.83
2023-02-17T15:27:11.772Z,39.29
2023-02-17T15:29:38.375Z,39.90
2023-02-17T15:32:15.185Z,40.00
2023-02-17T15:34:41.777Z,40.76
2023-02-17T15:37:09.843Z,39.70
2023-02-17T15:39:36.424Z,38.72
2023-02-17T15:42:10.337Z,39.29
2023-02-17T15:44:40.970Z,39.24
2023-02-17T15:47:13.793Z,40.19
2023-02-17T15:49:40.381Z,39.73
2023-02-17T15:52:12.533Z,40.25
2023-02-17T15:54:43.194Z,40.62
2023-02-17T15:57:22.432Z,41.60
2023-02-17T15:59:49.372Z,41.34
2023-02-17T16:02:24.156Z,41.18
2023-02-17T16:04:50.747Z,42.86
2023-02-17T16:07:17.357Z,42.68
2023-02-17T16:09:43.913Z,42.49
2023-02-17T16:12:27.016Z,41.28
2023-02-17T16:14:55.336Z,41.59
2023-02-17T16:17:22.193Z,41.69
2023-02-17T16:19:48.801Z,41.50
2023-02-17T16:22:15.389Z,40.13
2023-02-17T16:24:41.928Z,40.55
2023-02-17T16:27:14.393Z,42.97
2023-02-17T16:29:41.687Z,41.73
2023-02-17T16:32:11.843Z,42.00
2023-02-17T16:34:39.001Z,42.03
2023-02-17T16:37:13.152Z,43.15
2023-02-17T16:39:39.873Z,41.84
2023-02-17T16:42:06.410Z,42.85
2023-02-17T16:44:33.023Z,42.65
2023-02-17T16:47:01.556Z,41.83
2023-02-17T16:49:33.260Z,42.44
2023-02-17T16:52:00.718Z,42.12
2023-02-17T16:54:27.345Z,43.48
2023-02-17T16:56:54.908Z,43.80
2023-02-17T16:59:23.575Z,42.64
2023-02-17T17:01:51.106Z,42.88
2023-02-17T17:04:17.809Z,43.24
2023-02-17T17:06:47.794Z,45.05
2023-02-17T17:09:21.111Z,44.30
2023-02-17T17:11:47.839Z,43.94
2023-02-17T17:14:14.790Z,44.78
2023-02-17T17:16:45.305Z,44.39
2023-02-17T17:19:13.419Z,42.96
2023-02-17T17:21:40.138Z,44.86
2023-02-17T17:24:06.775Z,44.36
2023-02-17T17:26:40.621Z,44.55
2023-02-17T17:29:08.437Z,43.18
2023-02-17T17:31:35.144Z,42.95
2023-02-17T17:34:01.775Z,42.67
2023-02-17T17:36:37.699Z,41.98
2023-02-17T17:39:06.399Z,42.62
2023-02-17T17:41:33.087Z,42.59
2023-02-17T17:43:59.872Z,42.20
2023-02-17T17:46:29.404Z,43.46
2023-02-17T17:48:58.838Z,43.95
2023-02-17T17:51:27.417Z,42.87
2023-02-17T17:53:54.889Z,43.27
2023-02-17T17:56:22.992Z,43.12
2023-02-17T17:58:50.655Z,43.69
2023-02-17T18:01:19.192Z,43.77
2023-02-17T18:03:46.024Z,43.90
2023-02-17T18:06:22.778Z,42.88
2023-02-17T18:08:50.594Z,43.89
2023-02-17T18:11:21.097Z,43.78
2023-02-17T18:13:51.688Z,44.44
2023-02-17T18:16:21.672Z,43.94
2023-02-17T18:18:49.788Z,43.54
2023-02-17T18:21:16.565Z,41.49
2023-02-17T18:23:43.172Z,41.89
2023-02-17T18:26:11.872Z,42.01
2023-02-17T18:28:38.739Z,42.53
2023-02-17T18:31:09.895Z,43.12
2023-02-17T18:33:37.122Z,42.20
2023-02-17T18:36:18.664Z,44.24
2023-02-17T18:38:45.796Z,43.56
2023-02-17T18:41:26.938Z,43.47
2023-02-17T18:43:54.452Z,41.96
2023-02-17T18:46:21.052Z,41.87
2023-02-17T18:48:47.739Z,43.98
2023-02-17T18:51:16.338Z,43.61
2023-02-17T18:53:42.881Z,43.00
2023-02-17T18:56:22.753Z,42.09
2023-02-17T18:58:51.243Z,43.34
2023-02-17T19:01:25.788Z,42.32
2023-02-17T19:03:52.905Z,42.83
2023-02-17T19:06:22.327Z,43.48
2023-02-17T19:08:49.413Z,42.32
2023-02-17T19:11:17.878Z,42.67
2023-02-17T19:13:44.806Z,42.08
2023-02-17T19:16:15.263Z,43.89
2023-02-17T19:18:42.822Z,43.54
2023-02-17T19:21:09.965Z,43.70
2023-02-17T19:23:37.082Z,43.36
2023-02-17T19:26:06.931Z,44.05
2023-02-17T19:28:35.899Z,44.71
2023-02-17T19:31:07.124Z,43.53
2023-02-17T19:33:34.272Z,43.62
2023-02-17T19:36:05.508Z,43.34
2023-02-17T19:38:32.808Z,42.36
2023-02-17T19:41:03.229Z,43.73
2023-02-17T19:43:29.851Z,44.12
2023-02-17T19:45:56.753Z,44.99
2023-02-17T19:48:24.246Z,44.16
2023-02-17T19:50:52.142Z,42.15
2023-02-17T19:53:18.981Z,42.99
2023-02-17T19:55:45.528Z,44.12
2023-02-17T19:58:12.138Z,43.72
2023-02-17T20:00:38.756Z,45.15
2023-02-17T20:03:05.381Z,44.00
2023-02-17T20:05:36.899Z,45.01
2023-02-17T20:08:03.486Z,43.44
2023-02-17T20:10:30.070Z,44.73
2023-02-17T20:12:56.656Z,44.24
2023-02-17T20:15:23.269Z,43.69
2023-02-17T20:17:49.818Z,43.48
2023-02-17T20:20:16.601Z,43.18
2023-02-17T20:22:43.200Z,44.80
2023-02-17T20:25:09.855Z,43.96
2023-02-17T20:27:36.389Z,43.90
2023-02-17T20:30:03.147Z,43.95
2023-02-17T20:32:30.023Z,43.72
2023-02-17T20:34:56.697Z,43.77
2023-02-17T20:37:23.228Z,43.88
2023-02-17T20:39:49.930Z,43.88
2023-02-17T20:42:16.559Z,43.55
2023-02-17T20:44:43.135Z,43.53
2023-02-17T20:47:11.029Z,42.58
2023-02-17T20:49:37.679Z,43.00
2023-02-17T20:52:05.770Z,42.44
2023-02-17T20:54:32.452Z,42.36
2023-02-17T20:57:01.002Z,43.03
2023-02-17T20:59:27.613Z,42.00
2023-02-17T21:01:54.216Z,42.20
2023-02-17T21:04:20.742Z,42.97
2023-02-17T21:06:47.394Z,42.33
2023-02-17T21:09:17.456Z,43.08
2023-02-17T21:11:44.635Z,42.40
2023-02-17T21:14:11.500Z,42.97
2023-02-17T21:16:38.364Z,43.39
2023-02-17T21:19:05.068Z,41.93
2023-02-17T21:21:32.694Z,42.23
2023-02-17T21:23:59.737Z,41.76
2023-02-17T21:26:26.498Z,42.26
2023-02-17T21:28:53.407Z,41.59
2023-02-17T21:31:20.080Z,42.20
2023-02-17T21:33:46.720Z,42.90
2023-02-17T21:36:16.870Z,42.49
2023-02-17T21:38:44.078Z,42.63
2023-02-17T21:41:16.327Z,42.29
2023-02-17T21:44:02.079Z,42.57
2023-02-17T21:46:30.230Z,41.88
2023-02-17T21:49:01.342Z,41.32
2023-02-17T21:51:28.309Z,42.55
2023-02-17T21:53:55.217Z,41.83
2023-02-17T21:56:23.024Z,42.17
2023-02-17T21:58:52.223Z,41.82
2023-02-17T22:01:19.623Z,41.47
2023-02-17T22:03:46.247Z,41.97
2023-02-17T22:06:24.707Z,42.26
2023-02-17T22:08:51.884Z,42.56
2023-02-17T22:11:30.799Z,44.65
2023-02-17T22:14:03.646Z,42.82
2023-02-17T22:16:35.098Z,43.62
2023-02-17T22:19:02.458Z,43.61
2023-02-17T22:21:29.298Z,45.46
2023-02-17T22:23:57.788Z,45.29
2023-02-17T22:26:26.008Z,43.68
2023-02-17T22:28:53.490Z,44.74
2023-02-17T22:31:22.709Z,44.50
2023-02-17T22:33:49.420Z,43.30
2023-02-17T22:36:22.059Z,43.71
2023-02-17T22:38:49.652Z,45.61
2023-02-17T22:41:19.607Z,45.75
2023-02-17T22:43:47.278Z,44.03
2023-02-17T22:46:16.403Z,43.73
2023-02-17T22:48:45.576Z,45.33
2023-02-17T22:51:17.878Z,43.65
2023-02-17T22:53:44.976Z,42.85
2023-02-17T22:56:12.550Z,43.88
2023-02-17T22:58:39.595Z,43.55
2023-02-17T23:01:11.418Z,43.51
2023-02-17T23:03:38.486Z,43.56
2023-02-17T23:06:12.009Z,42.72
2023-02-17T23:08:38.747Z,42.83
2023-02-17T23:11:06.827Z,43.93
2023-02-17T23:13:34.140Z,44.35
2023-02-17T23:16:01.313Z,43.75
2023-02-17T23:18:30.204Z,43.59
2023-02-17T23:20:56.735Z,43.93
2023-02-17T23:23:24.094Z,45.33
2023-02-17T23:25:53.055Z,43.20
2023-02-17T23:28:21.475Z,44.69
2023-02-17T23:30:48.751Z,44.28
2023-02-17T23:33:22.120Z,44.36
2023-02-17T23:35:48.772Z,45.75
2023-02-17T23:38:18.139Z,45.54
2023-02-17T23:40:48.903Z,44.08
2023-02-17T23:43:16.146Z,44.74
2023-02-17T23:45:42.883Z,44.80
2023-02-17T23:48:09.585Z,45.82
2023-02-17T23:50:36.152Z,45.27
2023-02-17T23:53:02.876Z,44.26
2023-02-17T23:55:29.448Z,45.17
2023-02-17T23:57:56.049Z,45.76
